New Ross, Indiana
Current Conditions -  °F | °C
As of 5:35 PM on Sunday 25 Jan 2015 (Local Time) from K4I7 Reporting Station
Light Rain Light Rain  
Wind Chill: 26°   Ceiling: 800
Heat Index: 34°   Visibility: 4mi
Dew Point: 32°   Wind: 9mph
Humidity: 93%   Direction: 30°NNE
Pressure: 29.68"   Gusts: NA
Location:  39.96°N, 86.71°W
Report Text: K4I7 252235Z AUTO 03008KT 4SM -RA OVC008 01/00 A2968 RMK AO2
Loading
Personal Weather Stations






























Interactive Weather Map New forecast layout! Learn more

10-Day Weather Forecast

Advertisements
Track Severe Weather on mobile